createdAt,value
2023-05-22T00:01:57.090Z,18.2
2023-05-22T00:06:00.073Z,18.1
2023-05-22T00:09:55.211Z,18.2
2023-05-22T00:11:52.776Z,18.3
2023-05-22T00:13:50.360Z,18.3
2023-05-22T00:15:48.009Z,18.3
2023-05-22T00:17:45.568Z,18.4
2023-05-22T00:19:51.087Z,18.3
2023-05-22T00:25:43.813Z,18.6
2023-05-22T00:39:34.818Z,18.5
2023-05-22T00:41:32.410Z,18.6
2023-05-22T00:43:29.972Z,18.7
2023-05-22T00:52:30.963Z,18.5
2023-05-22T00:54:28.557Z,18.6
2023-05-22T00:58:23.718Z,18.5
2023-05-22T01:00:29.249Z,18.6
2023-05-22T01:02:26.835Z,18.4
2023-05-22T01:04:24.409Z,18.5
2023-05-22T01:06:21.993Z,18.4
2023-05-22T01:08:19.587Z,18.3
2023-05-22T01:10:17.129Z,18.3
2023-05-22T01:12:14.712Z,18.2
2023-05-22T01:14:20.238Z,18.1
2023-05-22T01:16:17.828Z,18.2
2023-05-22T01:26:05.715Z,18.2
2023-05-22T01:28:11.257Z,18.1
2023-05-22T01:32:06.435Z,18.1
2023-05-22T01:34:04.189Z,18.1
2023-05-22T01:36:01.584Z,18
2023-05-22T01:39:56.793Z,18
2023-05-22T01:45:57.514Z,17.8
2023-05-22T01:48:24.331Z,17.8
2023-05-22T01:50:21.932Z,17.8
2023-05-22T01:52:19.516Z,17.8
2023-05-22T01:54:25.041Z,17.9
2023-05-22T01:58:20.231Z,17.9
2023-05-22T02:02:15.447Z,17.9
2023-05-22T02:10:13.679Z,17.7
2023-05-22T02:12:11.259Z,17.7
2023-05-22T02:14:08.856Z,17.7
2023-05-22T02:16:06.474Z,17.7
2023-05-22T02:18:04.101Z,17.7
2023-05-22T02:20:01.575Z,17.7
2023-05-22T02:22:07.113Z,17.7
2023-05-22T02:24:04.721Z,17.6
2023-05-22T02:26:02.312Z,17.6
2023-05-22T02:27:59.881Z,17.6
2023-05-22T02:29:57.512Z,17.5
2023-05-22T02:31:55.120Z,17.6
2023-05-22T02:35:58.229Z,17.4
2023-05-22T02:37:55.806Z,17.4
2023-05-22T02:39:53.380Z,17.4
2023-05-22T02:42:53.752Z,17.3
2023-05-22T02:44:51.357Z,17.4
2023-05-22T02:46:48.984Z,17.5
2023-05-22T02:52:49.650Z,17.4
2023-05-22T02:54:47.225Z,17.3
2023-05-22T02:56:44.854Z,17.3
2023-05-22T02:58:42.447Z,17.3
2023-05-22T03:00:40.339Z,17.2
2023-05-22T03:06:40.755Z,17.1
2023-05-22T03:08:38.324Z,17.1
2023-05-22T03:10:35.915Z,17
2023-05-22T03:12:33.512Z,17
2023-05-22T03:16:36.716Z,17
2023-05-22T03:18:34.257Z,17.2
2023-05-22T03:20:31.865Z,17
2023-05-22T03:22:29.459Z,16.9
2023-05-22T03:26:24.633Z,16.9
2023-05-22T03:30:27.775Z,16.9
2023-05-22T03:32:25.351Z,16.9
2023-05-22T03:34:22.939Z,16.8
2023-05-22T03:37:23.320Z,16.8
2023-05-22T03:47:19.263Z,16.9
2023-05-22T03:51:14.489Z,16.8
2023-05-22T03:53:12.056Z,16.7
2023-05-22T03:55:09.692Z,16.7
2023-05-22T03:59:12.782Z,16.8
2023-05-22T04:01:10.392Z,16.8
2023-05-22T04:03:08.058Z,16.7
2023-05-22T04:11:06.397Z,16.7
2023-05-22T04:22:51.939Z,16.6
2023-05-22T04:26:55.266Z,16.6
2023-05-22T04:29:55.493Z,16.7
2023-05-22T04:31:53.105Z,16.5
2023-05-22T04:33:50.712Z,16.5
2023-05-22T04:39:51.441Z,16.3
2023-05-22T04:41:49.007Z,16.3
2023-05-22T04:43:46.618Z,16.3
2023-05-22T04:45:44.211Z,16.3
2023-05-22T04:47:41.898Z,16.3
2023-05-22T04:49:39.405Z,16.3
2023-05-22T04:51:44.998Z,16.3
2023-05-22T04:53:42.547Z,16.3
2023-05-22T04:55:40.134Z,16.3
2023-05-22T04:57:37.723Z,16.3
2023-05-22T04:59:35.288Z,16.3
2023-05-22T05:03:30.506Z,16.5
2023-05-22T05:05:36.068Z,16.3
2023-05-22T05:07:33.615Z,16.5
2023-05-22T05:09:31.240Z,16.5
2023-05-22T05:11:28.827Z,16.6
2023-05-22T05:13:26.402Z,16.6
2023-05-22T05:15:24.087Z,16.6
2023-05-22T05:17:21.605Z,16.6
2023-05-22T05:19:27.150Z,16.8
2023-05-22T05:21:24.751Z,16.9
2023-05-22T05:25:45.591Z,16.9
2023-05-22T05:29:40.778Z,16.9
2023-05-22T05:31:46.336Z,17.1
2023-05-22T05:43:33.445Z,17.3
2023-05-22T05:45:38.972Z,17.3
2023-05-22T05:47:36.638Z,17.5
2023-05-22T05:51:31.806Z,17.6
2023-05-22T05:53:29.450Z,17.5
2023-05-22T05:55:27.016Z,17.6
2023-05-22T05:57:24.601Z,17.8
2023-05-22T05:59:30.129Z,17.9
2023-05-22T06:01:27.711Z,18
2023-05-22T06:03:25.432Z,18.1
2023-05-22T06:05:23.134Z,18.2
2023-05-22T06:07:20.519Z,18.3
2023-05-22T06:09:18.112Z,18.2
2023-05-22T06:11:15.722Z,18.3
2023-05-22T06:13:21.241Z,18.3
2023-05-22T06:15:18.830Z,18.5
2023-05-22T06:17:16.438Z,18.5
2023-05-22T06:18:19.182Z,18.5
2023-05-22T06:26:17.496Z,18.7
2023-05-22T06:28:15.059Z,18.6
2023-05-22T06:30:12.645Z,18.6
2023-05-22T06:32:10.289Z,18.6
2023-05-22T06:38:03.006Z,18.7
2023-05-22T06:42:06.063Z,18.8
2023-05-22T06:44:03.665Z,18.7
2023-05-22T06:47:58.816Z,18.8
2023-05-22T06:49:56.373Z,19
2023-05-22T06:51:53.923Z,19
2023-05-22T06:53:59.430Z,19
2023-05-22T06:57:54.573Z,19.2
2023-05-22T06:59:52.142Z,19.2
2023-05-22T07:01:49.786Z,19.2
2023-05-22T07:03:47.338Z,19.2
2023-05-22T07:05:44.921Z,19.4
2023-05-22T07:07:50.433Z,19.3
2023-05-22T07:09:47.980Z,19.4
2023-05-22T07:11:45.535Z,19.4
2023-05-22T07:12:48.277Z,19.3
2023-05-22T07:14:45.818Z,19.3
2023-05-22T07:16:43.452Z,19.2
2023-05-22T07:18:40.943Z,19.2
2023-05-22T07:20:46.467Z,19.4
2023-05-22T07:22:44.057Z,19.3
2023-05-22T07:28:36.735Z,19.3
2023-05-22T07:32:31.862Z,19.6
2023-05-22T07:34:37.391Z,19.7
2023-05-22T07:36:34.940Z,19.7
2023-05-22T07:38:32.495Z,19.7
2023-05-22T07:40:30.062Z,19.7
2023-05-22T07:48:28.245Z,20
2023-05-22T07:52:23.356Z,20
2023-05-22T08:00:13.907Z,20.4
2023-05-22T08:02:19.122Z,20.4
2023-05-22T08:07:16.922Z,20.5
2023-05-22T08:09:14.479Z,20.4
2023-05-22T08:11:12.018Z,20.6
2023-05-22T08:13:09.565Z,20.8
2023-05-22T08:15:15.047Z,20.9
2023-05-22T08:17:12.838Z,21
2023-05-22T08:19:10.251Z,21
2023-05-22T08:21:07.669Z,21.1
2023-05-22T08:27:00.303Z,21.3
2023-05-22T08:31:03.319Z,21.1
2023-05-22T08:33:00.914Z,21.1
2023-05-22T08:34:58.379Z,21
2023-05-22T08:36:55.934Z,20.9
2023-05-22T08:38:53.439Z,20.8
2023-05-22T08:42:56.458Z,20.9
2023-05-22T08:44:53.980Z,21.1
2023-05-22T08:48:49.033Z,21.4
2023-05-22T08:50:46.553Z,21.4
2023-05-22T08:54:41.595Z,21.6
2023-05-22T08:56:56.187Z,21.5
2023-05-22T08:58:44.605Z,21.4
2023-05-22T09:03:09.055Z,21.1
2023-05-22T09:05:06.450Z,21.1
2023-05-22T09:07:03.970Z,21.1
2023-05-22T09:09:09.421Z,21.3
2023-05-22T09:11:06.931Z,21.5
2023-05-22T09:15:02.015Z,21.8
2023-05-22T09:16:59.605Z,21.7
2023-05-22T09:23:00.010Z,21.9
2023-05-22T09:24:57.535Z,22.1
2023-05-22T09:26:55.055Z,22.2
2023-05-22T09:30:50.138Z,22
2023-05-22T09:38:48.059Z,21.9
2023-05-22T09:44:40.560Z,22.1
2023-05-22T09:48:35.564Z,22.4
2023-05-22T09:50:41.165Z,22.6
2023-05-22T09:52:38.523Z,22.5
2023-05-22T09:55:38.767Z,22.5
2023-05-22T09:57:36.290Z,22.5
2023-05-22T09:59:33.800Z,22.6
2023-05-22T10:03:36.751Z,23
2023-05-22T10:05:34.265Z,22.9
2023-05-22T10:07:31.752Z,22.9
2023-05-22T10:09:29.233Z,23
2023-05-22T10:11:26.735Z,23.2
2023-05-22T10:13:24.250Z,23.2
2023-05-22T10:15:21.745Z,23.3
2023-05-22T10:17:27.187Z,23.2
2023-05-22T10:19:24.699Z,23.4
2023-05-22T10:21:22.161Z,23.5
2023-05-22T10:23:19.631Z,23.4
2023-05-22T10:29:12.059Z,23.5
2023-05-22T10:31:17.510Z,23.4
2023-05-22T10:33:15.076Z,23.6
2023-05-22T10:35:12.463Z,23.7
2023-05-22T10:37:18.182Z,23.8
2023-05-22T10:39:07.396Z,23.9
2023-05-22T10:41:04.895Z,24
2023-05-22T10:45:11.449Z,24.2
2023-05-22T10:47:05.224Z,24.3
2023-05-22T10:49:02.701Z,24.2
2023-05-22T10:50:05.409Z,24.4
2023-05-22T10:52:02.852Z,24.3
2023-05-22T10:54:00.295Z,24.6
2023-05-22T10:55:57.778Z,24.7
2023-05-22T10:58:05.115Z,25
2023-05-22T11:00:00.614Z,25.2
2023-05-22T11:05:52.917Z,25.3
2023-05-22T11:07:50.370Z,25.7
2023-05-22T11:17:45.522Z,26.1
2023-05-22T11:23:39.096Z,26.6
2023-05-22T11:25:44.472Z,26.4
2023-05-22T11:27:41.824Z,26.4
2023-05-22T11:31:36.669Z,26.5
2023-05-22T11:33:33.876Z,26.5
2023-05-22T11:35:31.201Z,26.2
2023-05-22T11:37:28.531Z,26.4
2023-05-22T11:39:33.857Z,26.9
2023-05-22T11:41:33.072Z,26.8
2023-05-22T11:43:28.486Z,26.3
2023-05-22T11:44:31.148Z,26
2023-05-22T11:50:40.055Z,26.4
2023-05-22T11:54:25.662Z,26.8
2023-05-22T11:56:22.992Z,27.3
2023-05-22T11:58:20.234Z,27.5
2023-05-22T12:00:17.587Z,27.4
2023-05-22T12:02:14.791Z,27.4
2023-05-22T12:12:09.229Z,25.9
2023-05-22T12:14:06.509Z,25.8
2023-05-22T12:18:01.059Z,26.7
2023-05-22T12:20:06.328Z,26.9
2023-05-22T12:25:58.151Z,26.8
2023-05-22T12:27:55.445Z,26.6
2023-05-22T12:29:52.766Z,26.5
2023-05-22T12:33:55.303Z,26.6
2023-05-22T12:37:49.850Z,26.4
2023-05-22T12:40:16.506Z,26.6
2023-05-22T12:42:13.773Z,26.6
2023-05-22T12:50:10.973Z,27.1
2023-05-22T13:00:05.409Z,26.1
2023-05-22T13:02:02.724Z,26.2
2023-05-22T13:07:54.644Z,26.1
2023-05-22T13:09:51.977Z,26
2023-05-22T13:17:49.278Z,25.5
2023-05-22T13:19:46.633Z,25.5
2023-05-22T13:23:41.352Z,25.3
2023-05-22T13:25:38.831Z,25.2
2023-05-22T13:27:44.001Z,25.1
2023-05-22T13:29:41.366Z,25.2
2023-05-22T13:31:38.736Z,25.4
2023-05-22T13:32:41.473Z,25.3
2023-05-22T13:34:38.986Z,25.4
2023-05-22T13:36:36.178Z,25.5
2023-05-22T13:38:33.548Z,25.5
2023-05-22T13:40:38.928Z,25.3
2023-05-22T13:42:36.295Z,25
2023-05-22T13:44:33.682Z,25.3
2023-05-22T13:46:31.072Z,25.5
2023-05-22T13:48:28.446Z,26.1
2023-05-22T13:50:25.788Z,26.5
2023-05-22T13:52:23.146Z,26.6
2023-05-22T13:54:28.480Z,27
2023-05-22T13:56:25.857Z,27
2023-05-22T14:00:20.500Z,27
2023-05-22T14:02:17.799Z,27.6
2023-05-22T14:04:15.070Z,27.9
2023-05-22T14:06:12.371Z,27.7
2023-05-22T14:12:12.167Z,26.2
2023-05-22T14:16:06.697Z,25.7
2023-05-22T14:18:03.973Z,25.5
2023-05-22T14:20:01.277Z,25.2
2023-05-22T14:26:01.145Z,24.7
2023-05-22T14:27:03.820Z,24.6
2023-05-22T14:30:58.487Z,24.6
2023-05-22T14:32:55.868Z,24.5
2023-05-22T14:35:01.111Z,24.2
2023-05-22T14:36:58.525Z,24.5
2023-05-22T14:38:55.829Z,24.4
2023-05-22T14:40:53.197Z,24.3
2023-05-22T14:42:53.287Z,24.4
2023-05-22T14:44:47.934Z,24.3
2023-05-22T14:46:45.490Z,24.4
2023-05-22T14:48:50.699Z,24.2
2023-05-22T14:50:48.126Z,24.2
2023-05-22T14:52:45.480Z,24.2
2023-05-22T14:54:42.894Z,24.1
2023-05-22T14:56:40.294Z,24.5
2023-05-22T14:58:37.698Z,25.5
2023-05-22T15:02:40.595Z,26.2
2023-05-22T15:06:35.269Z,25.3
2023-05-22T15:10:30.004Z,25.4
2023-05-22T15:12:27.381Z,25
2023-05-22T15:14:24.765Z,24.9
2023-05-22T15:16:30.173Z,24.9
2023-05-22T15:18:27.535Z,25.1
2023-05-22T15:20:24.873Z,25
2023-05-22T15:21:27.575Z,24.9
2023-05-22T15:23:24.999Z,24.8
2023-05-22T15:29:25.089Z,24.5
2023-05-22T15:31:22.502Z,24.2
2023-05-22T15:33:19.916Z,24.3
2023-05-22T15:37:14.666Z,24.4
2023-05-22T15:41:09.490Z,24.4
2023-05-22T15:43:14.862Z,24.3
2023-05-22T15:45:12.287Z,24.2
2023-05-22T15:47:09.688Z,23.9
2023-05-22T15:49:07.109Z,23.9
2023-05-22T15:51:04.538Z,23.8
2023-05-22T15:54:59.392Z,23.9
2023-05-22T15:59:02.219Z,23.8
2023-05-22T16:00:59.873Z,23.8
2023-05-22T16:08:49.400Z,23.9
2023-05-22T16:10:54.843Z,23.9
2023-05-22T16:12:52.319Z,23.7
2023-05-22T16:14:49.740Z,23.7
2023-05-22T16:17:16.467Z,23.4
2023-05-22T16:19:13.960Z,23.4
2023-05-22T16:21:11.376Z,23.5
2023-05-22T16:23:16.792Z,23.5
2023-05-22T16:25:14.272Z,23.5
2023-05-22T16:35:01.554Z,23.2
2023-05-22T16:44:56.921Z,22.9
2023-05-22T16:48:51.862Z,22.7
2023-05-22T16:50:57.313Z,22.8
2023-05-22T16:52:54.800Z,22.7
2023-05-22T16:58:47.237Z,22.6
2023-05-22T17:02:43.893Z,22.4
2023-05-22T17:04:49.217Z,22.4
2023-05-22T17:21:39.880Z,22.4
2023-05-22T17:23:37.378Z,22.4
2023-05-22T17:25:34.886Z,22.3
2023-05-22T17:27:36.115Z,22.4
2023-05-22T17:33:32.867Z,22.1
2023-05-22T17:35:30.345Z,22
2023-05-22T17:37:27.828Z,22
2023-05-22T17:51:18.309Z,21.8
2023-05-22T17:53:15.816Z,21.7
2023-05-22T17:57:10.827Z,21.4
2023-05-22T18:01:13.877Z,21.4
2023-05-22T18:10:06.575Z,21
2023-05-22T18:12:30.309Z,21
2023-05-22T18:16:07.204Z,21
2023-05-22T18:18:04.732Z,21
2023-05-22T18:20:02.190Z,20.8
2023-05-22T18:21:59.682Z,20.9
2023-05-22T18:23:57.222Z,20.8
2023-05-22T18:26:02.673Z,20.6
2023-05-22T18:28:00.218Z,20.7
2023-05-22T18:29:57.747Z,20.6
2023-05-22T18:31:55.381Z,20.5
2023-05-22T18:33:52.796Z,20.4
2023-05-22T18:35:50.324Z,20.4
2023-05-22T18:39:53.332Z,20.2
2023-05-22T18:41:50.904Z,20.2
2023-05-22T18:45:45.970Z,20.2
2023-05-22T18:47:43.570Z,20.2
2023-05-22T18:49:41.049Z,20.1
2023-05-22T18:53:44.052Z,20
2023-05-22T18:55:41.958Z,20.1
2023-05-22T18:57:39.189Z,20
2023-05-22T19:00:39.758Z,20
2023-05-22T19:02:37.191Z,19.9
2023-05-22T19:06:40.071Z,19.7
2023-05-22T19:08:37.624Z,19.7
2023-05-22T19:12:32.734Z,19.6
2023-05-22T19:14:30.301Z,19.5
2023-05-22T19:16:27.925Z,19.5
2023-05-22T19:18:25.382Z,19.4
2023-05-22T19:20:30.876Z,19.4
2023-05-22T19:22:28.464Z,19.5
2023-05-22T19:24:26.021Z,19.4
2023-05-22T19:26:23.583Z,19.3
2023-05-22T19:28:21.144Z,19.3
2023-05-22T19:30:18.698Z,19.3
2023-05-22T19:32:16.277Z,19.3
2023-05-22T19:36:19.331Z,19.3
2023-05-22T19:38:16.904Z,19.2
2023-05-22T19:40:14.478Z,19.1
2023-05-22T19:42:12.048Z,19.2
2023-05-22T19:44:09.590Z,18.9
2023-05-22T19:46:08.865Z,19
2023-05-22T19:48:12.661Z,18.9
2023-05-22T19:50:10.211Z,18.8
2023-05-22T19:54:34.620Z,18.5
2023-05-22T19:56:32.195Z,18.6
2023-05-22T20:00:35.270Z,18.4
2023-05-22T20:02:32.881Z,18.3
2023-05-22T20:08:25.905Z,18.3
2023-05-22T20:10:23.142Z,18.3
2023-05-22T20:14:26.264Z,18
2023-05-22T20:16:24.745Z,18.1
2023-05-22T20:18:21.393Z,18
2023-05-22T20:20:18.971Z,17.8
2023-05-22T20:24:14.111Z,17.7
2023-05-22T20:32:12.677Z,17.7
2023-05-22T20:34:09.919Z,17.8
2023-05-22T20:36:07.490Z,17.6
2023-05-22T20:38:05.113Z,17.7
2023-05-22T20:40:02.695Z,17.5
2023-05-22T20:42:08.310Z,17.4
2023-05-22T20:44:05.778Z,17.5
2023-05-22T20:51:01.339Z,17.5
2023-05-22T20:52:58.860Z,17.5
2023-05-22T20:55:04.401Z,17.2
2023-05-22T21:00:57.186Z,17.1
2023-05-22T21:02:56.442Z,17.2
2023-05-22T21:04:52.312Z,17
2023-05-22T21:06:49.927Z,16.9
2023-05-22T21:08:55.452Z,16.8
2023-05-22T21:14:48.247Z,16.9
2023-05-22T21:18:43.435Z,16.7
2023-05-22T21:20:41.371Z,16.7
2023-05-22T21:22:46.576Z,16.7
2023-05-22T21:28:39.373Z,16.6
2023-05-22T21:30:36.973Z,16.7
2023-05-22T21:41:35.616Z,16.5
2023-05-22T21:43:33.198Z,16.4
2023-05-22T21:47:28.452Z,16.5
2023-05-22T21:51:31.524Z,16.5
2023-05-22T21:53:29.106Z,16.6
2023-05-22T21:55:26.719Z,16.5
2023-05-22T21:59:21.922Z,16.6
2023-05-22T22:01:19.514Z,16.7
2023-05-22T22:03:25.162Z,16.6
2023-05-22T22:05:22.636Z,16.5
2023-05-22T22:07:20.231Z,16.7
2023-05-22T22:09:17.812Z,16.6
2023-05-22T22:11:15.393Z,16.5
2023-05-22T22:13:13.011Z,16.6
2023-05-22T22:19:13.769Z,16.6
2023-05-22T22:21:11.297Z,16.5
2023-05-22T22:23:08.932Z,16.6
2023-05-22T22:25:06.505Z,16.5
2023-05-22T22:27:04.083Z,16.5
2023-05-22T22:31:07.254Z,16.4
2023-05-22T22:35:02.402Z,16.5
2023-05-22T22:36:05.164Z,16.4
2023-05-22T22:38:02.748Z,16.5
2023-05-22T22:40:00.348Z,16.4
2023-05-22T22:41:57.961Z,16.5
2023-05-22T22:46:02.653Z,16.4
2023-05-22T22:49:57.839Z,16.5
2023-05-22T22:51:55.396Z,16.5
2023-05-22T22:55:50.628Z,16.5
2023-05-22T22:57:56.134Z,16.3
2023-05-22T22:59:53.751Z,16.4
2023-05-22T23:03:48.913Z,16.4
2023-05-22T23:05:46.613Z,16.4
2023-05-22T23:07:44.105Z,16.4
2023-05-22T23:11:47.207Z,16.3
2023-05-22T23:13:44.883Z,16.3
2023-05-22T23:15:42.664Z,16.4
2023-05-22T23:25:38.539Z,16.3
2023-05-22T23:27:35.869Z,16.2
2023-05-22T23:32:00.678Z,16.3
2023-05-22T23:47:49.172Z,16.3
2023-05-22T23:53:49.861Z,16.2
2023-05-22T23:55:47.448Z,16.2
2023-05-22T23:57:45.051Z,16.1
2023-05-22T23:59:42.646Z,16.2
